Time;durP1;ratioP1;P1;durP2;ratioP2;P2;SDS_P1;SDS_P2;PMS_P1;PMS_P2;Temp;Humidity;BMP_temperature;BMP_pressure;BME280_temperature;BME280_humidity;BME280_pressure;Samples;Min_cycle;Max_cycle;Signal;HPM_P1;HPM_P2
2024/04/23 00:00:57;;;;;;;;;;;;;;;9.75;100.00;102426.25;5322960;26;20352;-90
2024/04/23 00:03:23;;;;;;;;;;;;;;;9.76;100.00;102414.50;5350048;26;19930;-90
2024/04/23 00:05:48;;;;;;;;;;;;;;;9.78;100.00;102423.31;5348264;26;19937;-91
2024/04/23 00:08:14;;;;;;;;;;;;;;;9.68;100.00;102413.34;5350171;26;20373;-89
2024/04/23 00:10:40;;;;;;;;;;;;;;;9.73;100.00;102422.84;5353340;26;19937;-91
2024/04/23 00:13:08;;;;;;;;;;;;;;;9.70;100.00;102423.94;5352417;26;20331;-91
2024/04/23 00:15:34;;;;;;;;;;;;;;;9.68;100.00;102424.09;5380049;26;19938;-90
2024/04/23 00:18:00;;;;;;;;;;;;;;;9.67;100.00;102422.38;5349269;26;20389;-90
2024/04/23 00:20:27;;;;;;;;;;;;;;;9.69;100.00;102425.78;5350470;26;19930;-90
2024/04/23 00:22:52;;;;;;;;;;;;;;;9.71;100.00;102430.16;5377319;26;20234;-89
2024/04/23 00:25:18;;;;;;;;;;;;;;;9.71;100.00;102427.47;5319238;26;19930;-90
2024/04/23 00:27:44;;;;;;;;;;;;;;;9.72;100.00;102421.16;5349668;26;19930;-89
2024/04/23 00:30:10;;;;;;;;;;;;;;;9.70;100.00;102429.31;5348901;26;19938;-90
2024/04/23 00:32:35;;;;;;;;;;;;;;;9.68;100.00;102424.09;5348730;26;19934;-90
2024/04/23 00:35:01;;;;;;;;;;;;;;;9.67;100.00;102421.53;5349267;26;19938;-91
2024/04/23 00:37:27;;;;;;;;;;;;;;;9.63;100.00;102418.25;5348866;26;19930;-90
2024/04/23 00:39:54;;;;;;;;;;;;;;;9.60;100.00;102418.47;5377568;26;19930;-89
2024/04/23 00:42:20;;;;;;;;;;;;;;;9.59;100.00;102419.47;5348483;26;19942;-90
2024/04/23 00:44:46;;;;;;;;;;;;;;;9.60;100.00;102418.47;5347834;26;19937;-88
2024/04/23 00:47:11;;;;;;;;;;;;;;;9.62;100.00;102418.38;5348115;26;20000;-90
2024/04/23 00:49:37;;;;;;;;;;;;;;;9.61;100.00;102408.63;5349758;26;19938;-89
2024/04/23 00:52:03;;;;;;;;;;;;;;;9.61;100.00;102412.16;5347650;26;19930;-90
2024/04/23 00:54:28;;;;;;;;;;;;;;;9.58;100.00;102417.78;5347289;26;19941;-89
2024/04/23 00:56:55;;;;;;;;;;;;;;;9.58;100.00;102417.78;5347083;26;19930;-89
2024/04/23 00:59:21;;;;;;;;;;;;;;;9.55;100.00;102412.69;5347397;26;20357;-89
2024/04/23 01:01:47;;;;;;;;;;;;;;;9.53;100.00;102409.25;5347027;26;19942;-91
2024/04/23 01:04:13;;;;;;;;;;;;;;;9.56;100.00;102403.63;5376208;26;19930;-88
2024/04/23 01:06:38;;;;;;;;;;;;;;;9.55;100.00;102407.31;5317979;26;19938;-89
2024/04/23 01:09:04;;;;;;;;;;;;;;;9.56;100.00;102410.84;5319875;26;19941;-89
2024/04/23 01:11:34;;;;;;;;;;;;;;;9.50;100.00;102406.84;5349958;26;19938;-89
2024/04/23 01:14:00;;;;;;;;;;;;;;;9.49;100.00;102407.81;5349639;26;19937;-90
2024/04/23 01:16:26;;;;;;;;;;;;;;;9.49;100.00;102404.28;5379255;26;19930;-90
2024/04/23 01:18:52;;;;;;;;;;;;;;;9.50;100.00;102400.59;5292252;26;19930;-89
2024/04/23 01:21:18;;;;;;;;;;;;;;;9.50;100.00;102404.16;5351158;26;19937;-88
2024/04/23 01:23:45;;;;;;;;;;;;;;;9.51;100.00;102411.22;5378727;26;19934;-89
2024/04/23 01:26:11;;;;;;;;;;;;;;;9.53;100.00;102408.41;5378801;26;20254;-89
2024/04/23 01:28:37;;;;;;;;;;;;;;;9.52;100.00;102407.53;5349066;26;20363;-90
2024/04/23 01:31:03;;;;;;;;;;;;;;;9.50;100.00;102412.22;5349372;26;19934;-89
2024/04/23 01:33:29;;;;;;;;;;;;;;;9.50;100.00;102409.53;5349106;26;20024;-88
2024/04/23 01:35:54;;;;;;;;;;;;;;;9.50;100.00;102401.47;5350136;26;20359;-90
2024/04/23 01:38:20;;;;;;;;;;;;;;;9.53;100.00;102409.25;5383219;26;19938;-90
2024/04/23 01:40:46;;;;;;;;;;;;;;;9.52;100.00;102407.53;5368156;26;19947;-92
2024/04/23 01:43:13;;;;;;;;;;;;;;;9.46;100.00;102403.53;5373568;26;19937;-92
2024/04/23 01:45:38;;;;;;;;;;;;;;;9.40;100.00;102397.84;5324933;26;19978;-89
2024/04/23 01:48:05;;;;;;;;;;;;;;;9.36;100.00;102396.38;5378984;26;19934;-89
2024/04/23 01:50:31;;;;;;;;;;;;;;;9.34;100.00;102393.84;5320808;26;19930;-90
2024/04/23 01:52:57;;;;;;;;;;;;;;;9.34;100.00;102396.53;5379184;26;20000;-91
2024/04/23 01:55:22;;;;;;;;;;;;;;;9.34;100.00;102390.28;5354425;26;20277;-89
2024/04/23 01:57:48;;;;;;;;;;;;;;;9.31;100.00;102393.22;5351815;26;19941;-89
2024/04/23 02:00:14;;;;;;;;;;;;;;;9.28;100.00;102388.97;5355728;26;19930;-90
2024/04/23 02:02:40;;;;;;;;;;;;;;;9.29;100.00;102385.31;5321369;26;19937;-90
2024/04/23 02:05:06;;;;;;;;;;;;;;;9.29;100.00;102382.63;5349402;26;19930;-89
2024/04/23 02:07:32;;;;;;;;;;;;;;;9.29;100.00;102384.44;5322014;26;19930;-90
2024/04/23 02:09:57;;;;;;;;;;;;;;;9.27;100.00;102373.84;5378865;26;19930;-90
2024/04/23 02:12:26;;;;;;;;;;;;;;;9.25;100.00;102379.34;5349262;26;19941;-90
2024/04/23 02:14:51;;;;;;;;;;;;;;;9.25;100.00;102375.81;5350509;26;19935;-89
2024/04/23 02:17:17;;;;;;;;;;;;;;;9.24;100.00;102371.44;5349566;26;19934;-89
2024/04/23 02:19:43;;;;;;;;;;;;;;;9.23;100.00;102370.56;5348964;26;19938;-89
2024/04/23 02:22:09;;;;;;;;;;;;;;;9.22;100.00;102371.53;5378352;26;20260;-90
2024/04/23 02:24:35;;;;;;;;;;;;;;;9.21;100.00;102374.38;5379406;26;19930;-89
2024/04/23 02:27:02;;;;;;;;;;;;;;;9.23;100.00;102386.69;5321614;26;19930;-89
2024/04/23 02:29:27;;;;;;;;;;;;;;;9.22;100.00;102373.38;5378564;26;20360;-90
2024/04/23 02:31:53;;;;;;;;;;;;;;;9.25;100.00;102373.13;5349993;26;19937;-89
2024/04/23 02:34:19;;;;;;;;;;;;;;;9.25;100.00;102368.59;5320028;26;19945;-89
2024/04/23 02:36:44;;;;;;;;;;;;;;;9.25;100.00;102376.66;5378317;26;19930;-89
2024/04/23 02:39:10;;;;;;;;;;;;;;;9.26;100.00;102358.72;5348701;26;19938;-90
2024/04/23 02:41:45;;;;;;;;;;;;;;;9.26;100.00;102353.34;5349989;26;19937;-89
2024/04/23 02:44:11;;;;;;;;;;;;;;;9.25;100.00;102351.66;5348912;26;19937;-89
2024/04/23 02:46:37;;;;;;;;;;;;;;;9.23;100.00;102343.75;5349283;26;19942;-89
2024/04/23 02:49:02;;;;;;;;;;;;;;;9.26;100.00;102350.66;5348852;26;19942;-90
2024/04/23 02:51:30;;;;;;;;;;;;;;;9.21;100.00;102345.69;5349664;26;19938;-90
2024/04/23 02:53:56;;;;;;;;;;;;;;;9.19;100.00;102344.13;5348795;26;19958;-91
2024/04/23 02:56:21;;;;;;;;;;;;;;;9.19;100.00;102344.13;5320142;26;19941;-91
2024/04/23 02:58:47;;;;;;;;;;;;;;;9.19;100.00;102344.97;5349293;26;19934;-91
2024/04/23 03:01:20;;;;;;;;;;;;;;;9.18;100.00;102348.63;5324733;26;19930;-92
2024/04/23 03:03:52;;;;;;;;;;;;;;;9.24;100.00;102341.91;5360813;26;19934;-92
2024/04/23 03:06:17;;;;;;;;;;;;;;;9.28;100.00;102334.44;5354773;26;20068;-91
2024/04/23 03:08:43;;;;;;;;;;;;;;;9.30;100.00;102336.00;5379950;26;19936;-90
2024/04/23 03:11:08;;;;;;;;;;;;;;;9.27;100.00;102341.63;5349591;26;19930;-91
2024/04/23 03:13:34;;;;;;;;;;;;;;;9.23;100.00;102337.50;5323785;26;20094;-91
2024/04/23 03:16:03;;;;;;;;;;;;;;;9.22;100.00;102325.06;5350070;26;19930;-92
2024/04/23 03:18:29;;;;;;;;;;;;;;;9.23;100.00;102341.06;5349308;26;19941;-90
2024/04/23 03:20:54;;;;;;;;;;;;;;;9.21;100.00;102331.44;5350821;26;19934;-91
2024/04/23 03:23:20;;;;;;;;;;;;;;;9.19;100.00;102330.69;5352535;26;19962;-91
2024/04/23 03:25:46;;;;;;;;;;;;;;;9.18;100.00;102326.28;5355566;26;20000;-90
2024/04/23 03:28:11;;;;;;;;;;;;;;;9.17;100.00;102329.97;5350188;26;19938;-91
2024/04/23 03:30:39;;;;;;;;;;;;;;;9.14;100.00;102324.84;5348038;26;19930;-90
2024/04/23 03:33:05;;;;;;;;;;;;;;;9.13;100.00;102320.44;5351953;26;19930;-89
2024/04/23 03:35:31;;;;;;;;;;;;;;;9.10;100.00;102320.72;5349495;26;19962;-90
2024/04/23 03:37:56;;;;;;;;;;;;;;;9.10;100.00;102313.50;5326489;26;19930;-90
2024/04/23 03:40:22;;;;;;;;;;;;;;;9.10;100.00;102316.19;5363992;26;19922;-90
2024/04/23 03:42:48;;;;;;;;;;;;;;;9.07;100.00;102315.59;5371818;26;19938;-92
2024/04/23 03:45:13;;;;;;;;;;;;;;;9.08;100.00;102320.00;5358382;26;19957;-90
2024/04/23 03:47:39;;;;;;;;;;;;;;;9.10;100.00;102321.56;5352574;26;19930;-91
2024/04/23 03:50:05;;;;;;;;;;;;;;;9.07;100.00;102326.34;5383170;26;19930;-89
2024/04/23 03:52:31;;;;;;;;;;;;;;;9.07;100.00;102305.72;5358235;26;19930;-90
2024/04/23 03:54:57;;;;;;;;;;;;;;;9.03;100.00;102321.22;5360752;26;19930;-91
2024/04/23 03:57:23;;;;;;;;;;;;;;;9.01;100.00;102306.25;5389500;26;19978;-90
2024/04/23 03:59:51;;;;;;;;;;;;;;;9.00;100.00;102316.13;5328173;26;19941;-92
2024/04/23 04:07:45;;;;;;;;;;;;;;;8.95;100.00;102299.56;5377919;26;19942;-91
2024/04/23 04:10:13;;;;;;;;;;;;;;;8.94;100.00;102292.47;5352503;26;19930;-90
2024/04/23 04:12:41;;;;;;;;;;;;;;;8.93;100.00;102292.63;5357466;26;19938;-91
2024/04/23 04:15:09;;;;;;;;;;;;;;;8.94;100.00;102288.94;5327161;26;19977;-89
2024/04/23 04:17:35;;;;;;;;;;;;;;;8.93;100.00;102290.78;5382158;26;19930;-92
2024/04/23 04:20:01;;;;;;;;;;;;;;;8.90;100.00;102298.25;5352998;26;20003;-91
2024/04/23 04:22:27;;;;;;;;;;;;;;;8.90;100.00;102301.78;5349899;26;19937;-89
2024/04/23 04:24:52;;;;;;;;;;;;;;;8.88;100.00;102300.19;5351048;26;19929;-89
2024/04/23 04:27:18;;;;;;;;;;;;;;;8.88;100.00;102308.25;5379008;26;19938;-90
2024/04/23 04:29:44;;;;;;;;;;;;;;;8.86;100.00;102304.81;5349241;26;19994;-90
2024/04/23 04:32:10;;;;;;;;;;;;;;;8.86;100.00;102315.56;5349849;26;19937;-90
2024/04/23 04:34:35;;;;;;;;;;;;;;;8.85;100.00;102314.72;5323403;26;19937;-91
2024/04/23 04:37:01;;;;;;;;;;;;;;;8.89;100.00;102309.94;5352397;26;19977;-91
2024/04/23 04:39:30;;;;;;;;;;;;;;;8.88;100.00;102316.28;5352642;26;20025;-91
2024/04/23 04:41:59;;;;;;;;;;;;;;;8.89;100.00;102317.97;5347592;26;19942;-89
2024/04/23 04:44:25;;;;;;;;;;;;;;;8.88;100.00;102317.13;5346417;26;20071;-91
2024/04/23 04:46:50;;;;;;;;;;;;;;;8.91;100.00;102326.75;5347170;26;19941;-90
2024/04/23 04:49:16;;;;;;;;;;;;;;;8.90;100.00;102327.75;5349018;26;20004;-90
2024/04/23 04:51:42;;;;;;;;;;;;;;;8.89;100.00;102328.72;5351682;26;19930;-91
2024/04/23 04:54:10;;;;;;;;;;;;;;;8.86;100.00;102323.59;5353436;26;20381;-91
2024/04/23 04:56:39;;;;;;;;;;;;;;;8.89;100.00;102318.84;5348747;26;19930;-88
2024/04/23 04:59:05;;;;;;;;;;;;;;;8.89;100.00;102332.28;5375874;26;20353;-90
2024/04/23 05:01:30;;;;;;;;;;;;;;;8.86;100.00;102328.97;5346415;26;19937;-88
2024/04/23 05:03:57;;;;;;;;;;;;;;;8.85;100.00;102338.84;5348059;26;19937;-88
2024/04/23 05:06:23;;;;;;;;;;;;;;;8.83;100.00;102332.75;5348311;26;19929;-88
2024/04/23 05:08:49;;;;;;;;;;;;;;;8.80;100.00;102331.16;5375971;26;19937;-88
2024/04/23 05:11:14;;;;;;;;;;;;;;;8.79;100.00;102325.94;5347674;26;20000;-91
2024/04/23 05:13:40;;;;;;;;;;;;;;;8.81;100.00;102332.03;5375367;26;19930;-89
2024/04/23 05:16:06;;;;;;;;;;;;;;;8.79;100.00;102329.47;5346175;26;19930;-89
2024/04/23 05:18:31;;;;;;;;;;;;;;;8.79;100.00;102328.63;5317496;26;19937;-89
2024/04/23 05:20:58;;;;;;;;;;;;;;;8.82;100.00;102335.56;5346323;26;19934;-89
2024/04/23 05:23:23;;;;;;;;;;;;;;;8.82;100.00;102336.44;5346955;26;19930;-89
2024/04/23 05:25:49;;;;;;;;;;;;;;;8.84;100.00;102334.47;5347611;26;20368;-90
2024/04/23 05:28:14;;;;;;;;;;;;;;;8.83;100.00;102339.94;5376205;26;20174;-89
2024/04/23 05:33:27;;;;;;;;;;;;;;;8.82;100.00;102336.44;5352575;26;19930;-90
2024/04/23 05:35:53;;;;;;;;;;;;;;;8.83;100.00;102337.28;5376375;26;20422;-92
2024/04/23 05:38:18;;;;;;;;;;;;;;;8.79;100.00;102337.53;5346634;26;19937;-93
2024/04/23 05:40:44;;;;;;;;;;;;;;;8.77;100.00;102333.25;5345681;26;19930;-88
2024/04/23 05:43:12;;;;;;;;;;;;;;;8.75;100.00;102338.75;5347088;26;19930;-90
2024/04/23 05:45:38;;;;;;;;;;;;;;;8.77;100.00;102342.16;5317191;26;19943;-89
2024/04/23 05:48:22;;;;;;;;;;;;;;;8.77;100.00;102335.94;5345637;26;20008;-89
2024/04/23 05:51:06;;;;;;;;;;;;;;;8.78;100.00;102338.47;5317241;26;19930;-89
2024/04/23 05:53:51;;;;;;;;;;;;;;;8.79;100.00;102337.53;5345969;26;20339;-89
2024/04/23 05:56:16;;;;;;;;;;;;;;;8.81;100.00;102337.38;5323537;26;20249;-90
2024/04/23 05:58:42;;;;;;;;;;;;;;;8.80;100.00;102339.22;5399778;26;19930;-89
2024/04/23 06:01:08;;;;;;;;;;;;;;;8.75;100.00;102341.41;5371005;26;19929;-89
2024/04/23 06:03:33;;;;;;;;;;;;;;;8.69;100.00;102344.63;5348986;26;20393;-90
2024/04/23 06:05:59;;;;;;;;;;;;;;;8.66;100.00;102349.38;5349532;26;20368;-89
2024/04/23 06:08:26;;;;;;;;;;;;;;;8.56;100.00;102347.44;5320852;26;19936;-88
2024/04/23 06:10:51;;;;;;;;;;;;;;;8.41;100.00;102345.97;5349708;26;19942;-89
2024/04/23 06:13:18;;;;;;;;;;;;;;;8.31;100.00;102345.84;5355823;26;19999;-89
2024/04/23 06:15:43;;;;;;;;;;;;;;;8.25;100.00;102340.94;5361656;26;19941;-90
2024/04/23 06:18:09;;;;;;;;;;;;;;;8.22;100.00;102341.19;5329451;26;19930;-90
2024/04/23 06:20:34;;;;;;;;;;;;;;;8.20;100.00;102343.13;5385530;26;20012;-88
2024/04/23 06:23:00;;;;;;;;;;;;;;;8.21;100.00;102349.38;5357358;26;19930;-89
2024/04/23 06:25:25;;;;;;;;;;;;;;;8.20;100.00;102345.81;5357002;26;19980;-90
2024/04/23 06:27:51;;;;;;;;;;;;;;;8.21;100.00;102344.88;5358048;26;19941;-89
2024/04/23 06:30:17;;;;;;;;;;;;;;;8.24;100.00;102341.94;5358679;26;19937;-88
2024/04/23 06:32:43;;;;;;;;;;;;;;;8.28;100.00;102339.84;5356150;26;20007;-89
2024/04/23 06:35:09;;;;;;;;;;;;;;;8.32;100.00;102346.69;5350463;26;19930;-90
2024/04/23 06:37:35;;;;;;;;;;;;;;;8.38;100.00;102341.69;5348481;26;19930;-88
2024/04/23 06:40:00;;;;;;;;;;;;;;;8.42;100.00;102330.78;5348503;26;19938;-88
2024/04/23 06:42:26;;;;;;;;;;;;;;;8.42;100.00;102333.44;5377024;26;20435;-90
2024/04/23 06:44:52;;;;;;;;;;;;;;;8.44;100.00;102332.34;5348228;26;20371;-91
2024/04/23 06:47:17;;;;;;;;;;;;;;;8.47;100.00;102331.25;5348076;26;19945;-89
2024/04/23 06:49:44;;;;;;;;;;;;;;;8.53;100.00;102330.75;5377146;26;19937;-89
2024/04/23 06:52:14;;;;;;;;;;;;;;;8.56;100.00;102335.84;5348203;26;20343;-88
2024/04/23 06:54:40;;;;;;;;;;;;;;;8.58;100.00;102339.28;5376415;26;19973;-90
2024/04/23 06:57:06;;;;;;;;;;;;;;;8.68;100.00;102345.59;5319415;26;20242;-88
2024/04/23 06:59:32;;;;;;;;;;;;;;;8.75;100.00;102337.88;5350553;26;19999;-89
2024/04/23 07:01:58;;;;;;;;;;;;;;;8.77;100.00;102336.78;5319686;26;19938;-90
2024/04/23 07:04:23;;;;;;;;;;;;;;;8.82;100.00;102339.09;5348722;26;19942;-89
2024/04/23 07:06:49;;;;;;;;;;;;;;;8.90;100.00;102341.16;5347686;26;19930;-90
2024/04/23 07:09:15;;;;;;;;;;;;;;;8.93;100.00;102343.59;5348359;26;19946;-90
2024/04/23 07:11:40;;;;;;;;;;;;;;;8.97;100.00;102342.34;5347186;26;19930;-91
2024/04/23 07:14:06;;;;;;;;;;;;;;;9.02;100.00;102348.19;5347720;26;19941;-91
2024/04/23 07:16:31;;;;;;;;;;;;;;;9.14;100.00;102349.00;5347753;26;19930;-90
2024/04/23 07:18:57;;;;;;;;;;;;;;;9.28;100.00;102346.00;5318775;26;20422;-88
2024/04/23 07:21:23;;;;;;;;;;;;;;;9.38;100.00;102346.94;5347166;26;19934;-89
2024/04/23 07:23:48;;;;;;;;;;;;;;;9.44;100.00;102345.56;5376724;26;19930;-90
2024/04/23 07:26:14;;;;;;;;;;;;;;;9.41;100.00;102346.69;5319298;26;20000;-91
2024/04/23 07:28:40;;;;;;;;;;;;;;;9.39;100.00;102350.47;5347782;26;19956;-90
2024/04/23 07:31:06;;;;;;;;;;;;;;;9.33;100.00;102359.06;5376849;26;19930;-89
2024/04/23 07:33:32;;;;;;;;;;;;;;;9.26;100.00;102358.72;5348380;26;19934;-89
2024/04/23 07:35:58;;;;;;;;;;;;;;;9.22;100.00;102362.63;5348351;26;19983;-91
2024/04/23 07:38:23;;;;;;;;;;;;;;;9.27;100.00;102359.59;5318875;26;19937;-91
2024/04/23 07:40:50;;;;;;;;;;;;;;;9.35;100.00;102357.94;5347640;26;19937;-91
2024/04/23 07:43:16;;;;;;;;;;;;;;;9.41;100.00;102353.91;5347487;26;19942;-91
2024/04/23 07:45:42;;;;;;;;;;;;;;;9.51;100.00;102352.16;5348044;26;20428;-91
2024/04/23 07:48:07;;;;;;;;;;;;;;;9.70;100.00;102356.78;5347909;26;19930;-89
2024/04/23 07:50:33;;;;;;;;;;;;;;;9.86;100.00;102351.81;5375974;26;20365;-85
2024/04/23 07:53:05;;;;;;;;;;;;;;;9.94;100.00;102361.91;5314124;26;19930;-85
2024/04/23 07:55:30;;;;;;;;;;;;;;;9.99;100.00;102362.34;5346641;26;19954;-86
2024/04/23 07:57:56;;;;;;;;;;;;;;;10.00;100.00;102356.00;5375596;26;19937;-84
2024/04/23 08:00:24;;;;;;;;;;;;;;;10.00;100.00;102358.69;5317919;26;19937;-86
2024/04/23 08:02:54;;;;;;;;;;;;;;;9.99;100.00;102361.50;5346629;26;20377;-85
2024/04/23 08:05:19;;;;;;;;;;;;;;;10.02;100.00;102362.09;5346952;26;19937;-85
2024/04/23 08:07:45;;;;;;;;;;;;;;;10.14;100.00;102360.19;5375829;26;19930;-85
2024/04/23 08:10:11;;;;;;;;;;;;;;;10.29;100.00;102358.00;5346983;26;19941;-85
2024/04/23 08:12:37;;;;;;;;;;;;;;;10.46;100.00;102357.38;5346710;26;19930;-86
2024/04/23 08:15:02;;;;;;;;;;;;;;;10.64;100.00;102357.59;5321798;26;19937;-83
2024/04/23 08:17:29;;;;;;;;;;;;;;;10.79;100.00;102352.66;5363321;26;19930;-83
2024/04/23 08:19:54;;;;;;;;;;;;;;;10.84;100.00;102357.63;5354895;26;19941;-85
2024/04/23 08:22:20;;;;;;;;;;;;;;;10.83;100.00;102362.16;5375862;26;19938;-85
2024/04/23 08:24:45;;;;;;;;;;;;;;;10.91;100.00;102354.25;5346283;26;19930;-85
2024/04/23 08:27:10;;;;;;;;;;;;;;;11.08;100.00;102360.78;5346685;26;19937;-84
2024/04/23 08:29:36;;;;;;;;;;;;;;;11.20;100.00;102362.34;5346512;26;19941;-85
2024/04/23 08:32:02;;;;;;;;;;;;;;;11.36;100.00;102355.56;5346403;26;19929;-85
2024/04/23 08:34:30;;;;;;;;;;;;;;;11.50;100.00;102355.13;5375592;26;20298;-85
2024/04/23 08:36:55;;;;;;;;;;;;;;;11.60;100.00;102361.34;5317392;26;19931;-85
2024/04/23 08:39:21;;;;;;;;;;;;;;;11.57;100.00;102356.25;5346142;26;19930;-86
2024/04/23 08:41:47;;;;;;;;;;;;;;;11.48;100.00;102350.88;5346386;26;19937;-86
2024/04/23 08:44:13;;;;;;;;;;;;;;;11.32;100.00;102352.28;5375367;26;19930;-85
2024/04/23 08:46:39;;;;;;;;;;;;;;;11.23;100.00;102345.91;5317251;26;20309;-85
2024/04/23 08:49:05;;;;;;;;;;;;;;;11.22;100.00;102352.31;5375564;26;19940;-85
2024/04/23 08:51:30;;;;;;;;;;;;;;;11.11;100.00;102348.88;5317247;26;20257;-84
2024/04/23 08:53:56;;;;;;;;;;;;;;;11.04;100.00;102348.59;5345949;26;20045;-85
2024/04/23 08:56:24;;;;;;;;;;;;;;;10.91;100.00;102353.41;5345989;26;20362;-86
2024/04/23 08:58:50;;;;;;;;;;;;;;;10.74;100.00;102349.53;5348826;26;19937;-89
2024/04/23 09:01:30;;;;;;;;;;;;;;;10.63;100.00;102346.94;5346996;26;19954;-89
2024/04/23 09:03:56;;;;;;;;;;;;;;;10.59;100.00;102342.84;5346640;26;20362;-86
2024/04/23 09:06:22;;;;;;;;;;;;;;;10.86;100.00;102340.34;5316961;26;20264;-85
2024/04/23 09:08:48;;;;;;;;;;;;;;;11.23;100.00;102347.75;5345447;26;19937;-86
2024/04/23 09:11:13;;;;;;;;;;;;;;;11.79;100.00;102343.47;5345733;26;19958;-85
2024/04/23 09:13:39;;;;;;;;;;;;;;;12.08;100.00;102335.31;5374673;26;19942;-87
2024/04/23 09:16:06;;;;;;;;;;;;;;;11.87;100.00;102341.75;5345450;26;19930;-88
2024/04/23 09:18:31;;;;;;;;;;;;;;;12.07;100.00;102339.03;5346223;26;20017;-86
2024/04/23 09:20:57;;;;;;;;;;;;;;;14.17;100.00;102336.03;5346406;26;19938;-86
2024/04/23 09:23:26;;;;;;;;;;;;;;;14.32;100.00;102333.56;5355332;26;19937;-86
2024/04/23 09:25:54;;;;;;;;;;;;;;;13.97;100.00;102332.69;5380404;26;19938;-86
2024/04/23 09:28:23;;;;;;;;;;;;;;;13.59;100.00;102332.09;5346468;26;19930;-86
2024/04/23 09:30:49;;;;;;;;;;;;;;;13.31;100.00;102328.66;5349451;26;19957;-87
2024/04/23 09:33:21;;;;;;;;;;;;;;;13.01;100.00;102336.09;5320259;26;20405;-86
2024/04/23 09:35:58;;;;;;;;;;;;;;;12.49;100.00;102325.06;5348559;26;20293;-86
2024/04/23 09:38:23;;;;;;;;;;;;;;;12.26;100.00;102320.06;5319620;26;19934;-85
2024/04/23 09:40:48;;;;;;;;;;;;;;;12.44;100.00;102324.69;5377980;26;19934;-86
2024/04/23 09:43:14;;;;;;;;;;;;;;;12.67;100.00;102325.09;5348521;26;19930;-86
2024/04/23 09:45:40;;;;;;;;;;;;;;;12.49;100.00;102325.06;5348865;26;20313;-86
2024/04/23 09:48:06;;;;;;;;;;;;;;;12.40;100.00;102321.41;5348533;26;19934;-86
2024/04/23 09:50:31;;;;;;;;;;;;;;;12.31;100.00;102316.94;5377834;26;19937;-87
2024/04/23 09:53:05;;;;;;;;;;;;;;;12.59;100.00;102306.97;5348667;26;20009;-88
2024/04/23 09:55:31;;;;;;;;;;;;;;;13.49;100.00;102317.81;5348663;26;19942;-87
2024/04/23 09:57:56;;;;;;;;;;;;;;;15.44;88.22;102305.22;5320161;26;19930;-87
2024/04/23 10:00:22;;;;;;;;;;;;;;;16.64;71.45;102306.91;5348549;26;20341;-88
2024/04/23 10:02:48;;;;;;;;;;;;;;;16.47;64.19;102308.88;5348971;26;19930;-89
2024/04/23 10:05:15;;;;;;;;;;;;;;;17.65;61.44;102305.00;5377958;26;19934;-90
2024/04/23 10:07:59;;;;;;;;;;;;;;;16.27;64.22;102302.16;5348862;26;19930;-88
2024/04/23 10:10:47;;;;;;;;;;;;;;;15.25;68.46;102301.84;5378327;26;20021;-90
2024/04/23 10:13:18;;;;;;;;;;;;;;;14.85;71.37;102295.38;5378157;26;20274;-87
2024/04/23 10:15:43;;;;;;;;;;;;;;;14.82;70.62;102294.81;5348321;26;19930;-87
2024/04/23 10:18:14;;;;;;;;;;;;;;;15.17;68.36;102291.00;5348399;26;19937;-87
2024/04/23 10:20:42;;;;;;;;;;;;;;;15.39;67.11;102289.47;5348595;26;19976;-87
2024/04/23 10:23:08;;;;;;;;;;;;;;;15.04;70.59;102288.78;5348305;26;19930;-86
2024/04/23 10:25:33;;;;;;;;;;;;;;;15.30;68.64;102291.34;5348423;26;19937;-89
2024/04/23 10:28:00;;;;;;;;;;;;;;;15.29;67.22;102289.63;5377064;26;19930;-87
2024/04/23 10:30:29;;;;;;;;;;;;;;;16.33;64.82;102282.50;5349494;26;19933;-89
2024/04/23 10:32:57;;;;;;;;;;;;;;;15.28;64.63;102273.56;5377689;26;20000;-87
2024/04/23 10:35:23;;;;;;;;;;;;;;;14.10;70.18;102280.88;5352794;26;19930;-87
2024/04/23 10:37:49;;;;;;;;;;;;;;;13.82;72.88;102281.06;5362271;26;19930;-86
2024/04/23 10:40:14;;;;;;;;;;;;;;;15.26;66.37;102276.41;5343001;26;19958;-86
2024/04/23 10:42:40;;;;;;;;;;;;;;;15.66;64.77;102263.84;5359837;26;19962;-87
2024/04/23 10:45:05;;;;;;;;;;;;;;;16.90;61.82;102260.44;5347906;26;20495;-87
2024/04/23 10:47:31;;;;;;;;;;;;;;;16.21;59.21;102259.47;5377014;26;20365;-88
2024/04/23 10:49:56;;;;;;;;;;;;;;;16.38;60.21;102271.06;5318860;26;19930;-87
2024/04/23 10:52:22;;;;;;;;;;;;;;;15.82;63.10;102260.28;5347692;26;19942;-87
2024/04/23 10:54:49;;;;;;;;;;;;;;;17.21;59.38;102267.69;5347522;26;19937;-87
2024/04/23 10:57:14;;;;;;;;;;;;;;;16.86;55.27;102261.00;5347635;26;19937;-86
2024/04/23 10:59:40;;;;;;;;;;;;;;;16.54;57.20;102260.16;5347475;26;19930;-87
2024/04/23 11:02:06;;;;;;;;;;;;;;;18.53;54.49;102257.03;5347361;26;20268;-86
2024/04/23 11:04:32;;;;;;;;;;;;;;;20.09;50.20;102247.03;5347649;26;19930;-87
2024/04/23 11:07:02;;;;;;;;;;;;;;;19.00;50.67;102257.53;5351027;26;19930;-87
2024/04/23 11:09:32;;;;;;;;;;;;;;;17.63;52.65;102249.09;5381897;26;19936;-87
2024/04/23 11:11:58;;;;;;;;;;;;;;;18.79;52.40;102239.31;5340498;26;19929;-87
2024/04/23 11:14:36;;;;;;;;;;;;;;;19.99;47.73;102235.63;5357304;26;20357;-88
2024/04/23 11:17:02;;;;;;;;;;;;;;;18.61;50.72;102239.72;5347532;26;19930;-88
2024/04/23 11:19:51;;;;;;;;;;;;;;;17.14;54.65;102247.69;5349236;26;20272;-88
2024/04/23 11:22:17;;;;;;;;;;;;;;;19.28;51.59;102241.22;5347373;26;19938;-88
2024/04/23 11:24:44;;;;;;;;;;;;;;;20.36;49.33;102230.75;5347715;26;20364;-87
2024/04/23 11:27:13;;;;;;;;;;;;;;;18.68;48.30;102240.63;5347923;26;19930;-87
2024/04/23 11:29:39;;;;;;;;;;;;;;;18.42;51.82;102239.31;5376782;26;19934;-88
2024/04/23 11:32:05;;;;;;;;;;;;;;;18.55;49.79;102225.00;5347777;26;19936;-90
2024/04/23 11:34:31;;;;;;;;;;;;;;;19.53;49.44;102217.09;5320009;26;20380;-88
2024/04/23 11:36:56;;;;;;;;;;;;;;;20.38;48.26;102220.47;5354592;26;19930;-86
2024/04/23 11:39:25;;;;;;;;;;;;;;;20.07;46.50;102215.50;5379385;26;19930;-85
2024/04/23 11:41:51;;;;;;;;;;;;;;;19.88;47.92;102223.41;5347226;26;19999;-88
2024/04/23 11:44:19;;;;;;;;;;;;;;;18.62;50.38;102225.06;5318307;26;20320;-88
2024/04/23 11:46:45;;;;;;;;;;;;;;;17.81;52.96;102225.13;5347833;26;19930;-86
2024/04/23 11:49:10;;;;;;;;;;;;;;;17.96;51.79;102219.66;5347016;26;20331;-87
2024/04/23 11:51:36;;;;;;;;;;;;;;;17.90;53.28;102225.88;5346948;26;19996;-85
2024/04/23 11:54:01;;;;;;;;;;;;;;;18.40;50.97;102213.31;5318116;26;19936;-86
2024/04/23 11:56:27;;;;;;;;;;;;;;;18.75;51.07;102211.59;5346566;26;19930;-87
2024/04/23 11:58:52;;;;;;;;;;;;;;;19.70;49.10;102207.53;5346485;26;20000;-86
2024/04/23 12:01:21;;;;;;;;;;;;;;;19.70;49.10;102207.53;5346648;26;20388;-86
2024/04/23 12:03:47;;;;;;;;;;;;;;;20.27;45.00;102210.09;5346790;26;19930;-83
2024/04/23 12:06:12;;;;;;;;;;;;;;;19.28;47.49;102201.16;5317653;26;20020;-83
2024/04/23 12:08:39;;;;;;;;;;;;;;;20.21;45.85;102193.47;5317938;26;19942;-82
2024/04/23 12:11:04;;;;;;;;;;;;;;;19.36;48.85;102193.88;5375632;26;19930;-81
2024/04/23 12:13:29;;;;;;;;;;;;;;;17.74;53.07;102192.34;5345793;26;19930;-82
2024/04/23 12:15:55;;;;;;;;;;;;;;;17.58;53.92;102182.50;5346668;26;19930;-81
2024/04/23 12:18:21;;;;;;;;;;;;;;;17.63;54.76;102190.09;5317315;26;19942;-82
2024/04/23 12:20:46;;;;;;;;;;;;;;;17.91;52.89;102179.41;5317485;26;19930;-82
2024/04/23 12:23:13;;;;;;;;;;;;;;;18.23;52.23;102178.16;5345955;26;20193;-82
2024/04/23 12:25:40;;;;;;;;;;;;;;;18.94;49.36;102173.81;5318499;26;20373;-83
2024/04/23 12:28:06;;;;;;;;;;;;;;;19.39;48.39;102166.19;5352076;26;19936;-83
2024/04/23 12:30:31;;;;;;;;;;;;;;;20.29;48.36;102164.31;5323295;26;19930;-82
2024/04/23 12:33:13;;;;;;;;;;;;;;;19.85;48.42;102182.03;5366546;26;19934;-82
2024/04/23 12:35:39;;;;;;;;;;;;;;;19.38;48.26;102170.81;5358959;26;19930;-83
2024/04/23 12:38:06;;;;;;;;;;;;;;;17.61;52.39;102166.84;5374798;26;20285;-82
2024/04/23 12:40:32;;;;;;;;;;;;;;;17.75;52.96;102165.97;5346431;26;19934;-82